sensor_id;sensor_type;location;lat;lon;timestamp;temperature;humidity
21197;DHT22;10756;51.014;3.786;2022-09-03T00:01:23;19.70;99.90
21197;DHT22;10756;51.014;3.786;2022-09-03T00:04:01;19.60;99.90
21197;DHT22;10756;51.014;3.786;2022-09-03T00:06:39;19.40;99.90
21197;DHT22;10756;51.014;3.786;2022-09-03T00:09:21;19.30;99.90
21197;DHT22;10756;51.014;3.786;2022-09-03T00:14:27;19.30;99.90
21197;DHT22;10756;51.014;3.786;2022-09-03T00:17:03;19.20;99.90
21197;DHT22;10756;51.014;3.786;2022-09-03T00:19:39;19.30;99.90
21197;DHT22;10756;51.014;3.786;2022-09-03T00:22:09;19.10;99.90
21197;DHT22;10756;51.014;3.786;2022-09-03T00:24:39;19.10;99.90
21197;DHT22;10756;51.014;3.786;2022-09-03T00:27:14;19.10;99.90
21197;DHT22;10756;51.014;3.786;2022-09-03T00:35:01;19.10;99.90
21197;DHT22;10756;51.014;3.786;2022-09-03T00:37:27;19.20;99.90
21197;DHT22;10756;51.014;3.786;2022-09-03T00:39:54;19.10;99.90
21197;DHT22;10756;51.014;3.786;2022-09-03T00:42:30;19.20;99.90
21197;DHT22;10756;51.014;3.786;2022-09-03T00:45:10;19.60;99.90
21197;DHT22;10756;51.014;3.786;2022-09-03T01:06:44;19.40;99.90
21197;DHT22;10756;51.014;3.786;2022-09-03T01:09:27;19.20;99.90
21197;DHT22;10756;51.014;3.786;2022-09-03T01:14:45;19.00;99.90
21197;DHT22;10756;51.014;3.786;2022-09-03T01:17:34;18.90;99.90
21197;DHT22;10756;51.014;3.786;2022-09-03T01:23:03;18.90;99.90
21197;DHT22;10756;51.014;3.786;2022-09-03T01:34:09;19.10;99.90
21197;DHT22;10756;51.014;3.786;2022-09-03T01:45:10;19.30;99.90
21197;DHT22;10756;51.014;3.786;2022-09-03T01:59:02;19.10;99.90
21197;DHT22;10756;51.014;3.786;2022-09-03T02:01:44;19.00;99.90
21197;DHT22;10756;51.014;3.786;2022-09-03T02:04:17;19.60;99.90
21197;DHT22;10756;51.014;3.786;2022-09-03T02:06:44;20.10;99.90
21197;DHT22;10756;51.014;3.786;2022-09-03T02:09:14;19.80;99.90
21197;DHT22;10756;51.014;3.786;2022-09-03T02:11:41;19.60;99.90
21197;DHT22;10756;51.014;3.786;2022-09-03T02:14:08;19.50;99.90
21197;DHT22;10756;51.014;3.786;2022-09-03T02:16:34;19.40;99.90
21197;DHT22;10756;51.014;3.786;2022-09-03T02:19:06;19.10;99.90
21197;DHT22;10756;51.014;3.786;2022-09-03T02:21:38;19.20;99.90
21197;DHT22;10756;51.014;3.786;2022-09-03T02:24:07;19.10;99.90
21197;DHT22;10756;51.014;3.786;2022-09-03T02:26:33;19.00;99.90
21197;DHT22;10756;51.014;3.786;2022-09-03T02:29:00;19.20;99.90
21197;DHT22;10756;51.014;3.786;2022-09-03T02:31:27;19.30;99.90
21197;DHT22;10756;51.014;3.786;2022-09-03T02:33:53;19.20;99.90
21197;DHT22;10756;51.014;3.786;2022-09-03T02:36:24;19.20;99.90
21197;DHT22;10756;51.014;3.786;2022-09-03T02:38:51;19.10;99.90
21197;DHT22;10756;51.014;3.786;2022-09-03T02:41:17;19.00;99.90
21197;DHT22;10756;51.014;3.786;2022-09-03T02:44:13;19.00;99.90
21197;DHT22;10756;51.014;3.786;2022-09-03T02:46:45;19.00;99.90
21197;DHT22;10756;51.014;3.786;2022-09-03T02:49:13;18.90;99.90
21197;DHT22;10756;51.014;3.786;2022-09-03T02:51:41;18.80;99.90
21197;DHT22;10756;51.014;3.786;2022-09-03T02:54:07;18.80;99.90
21197;DHT22;10756;51.014;3.786;2022-09-03T02:56:33;18.80;99.90
21197;DHT22;10756;51.014;3.786;2022-09-03T02:58:59;18.80;99.90
21197;DHT22;10756;51.014;3.786;2022-09-03T03:01:25;18.80;99.90
21197;DHT22;10756;51.014;3.786;2022-09-03T03:03:51;18.70;99.90
21197;DHT22;10756;51.014;3.786;2022-09-03T03:06:18;18.70;99.90
21197;DHT22;10756;51.014;3.786;2022-09-03T03:08:47;18.70;99.90
21197;DHT22;10756;51.014;3.786;2022-09-03T03:11:14;18.60;99.90
21197;DHT22;10756;51.014;3.786;2022-09-03T03:13:43;18.60;99.90
21197;DHT22;10756;51.014;3.786;2022-09-03T03:16:09;18.70;99.90
21197;DHT22;10756;51.014;3.786;2022-09-03T03:18:35;18.70;99.90
21197;DHT22;10756;51.014;3.786;2022-09-03T03:21:19;18.80;99.90
21197;DHT22;10756;51.014;3.786;2022-09-03T03:23:45;18.90;99.90
21197;DHT22;10756;51.014;3.786;2022-09-03T03:26:13;18.80;99.90
21197;DHT22;10756;51.014;3.786;2022-09-03T03:28:39;18.70;99.90
21197;DHT22;10756;51.014;3.786;2022-09-03T03:31:14;18.70;99.90
21197;DHT22;10756;51.014;3.786;2022-09-03T03:33:40;18.60;99.90
21197;DHT22;10756;51.014;3.786;2022-09-03T03:36:11;18.60;99.90
21197;DHT22;10756;51.014;3.786;2022-09-03T03:38:37;18.60;99.90
21197;DHT22;10756;51.014;3.786;2022-09-03T03:41:12;18.60;99.90
21197;DHT22;10756;51.014;3.786;2022-09-03T03:43:38;18.60;99.90
21197;DHT22;10756;51.014;3.786;2022-09-03T03:46:04;18.60;99.90
21197;DHT22;10756;51.014;3.786;2022-09-03T03:48:30;18.60;99.90
21197;DHT22;10756;51.014;3.786;2022-09-03T06:08:41;18.50;99.90
21197;DHT22;10756;51.014;3.786;2022-09-03T08:01:35;21.30;99.90
21197;DHT22;10756;51.014;3.786;2022-09-03T09:41:33;25.30;99.90
21197;DHT22;10756;51.014;3.786;2022-09-03T10:04:08;25.70;99.90
21197;DHT22;10756;51.014;3.786;2022-09-03T11:19:31;31.10;99.90
21197;DHT22;10756;51.014;3.786;2022-09-03T11:46:00;28.70;99.90
21197;DHT22;10756;51.014;3.786;2022-09-03T12:12:55;32.20;99.90
21197;DHT22;10756;51.014;3.786;2022-09-03T12:30:13;35.90;98.40
21197;DHT22;10756;51.014;3.786;2022-09-03T18:31:13;23.30;99.90
21197;DHT22;10756;51.014;3.786;2022-09-03T18:51:10;23.30;99.90
21197;DHT22;10756;51.014;3.786;2022-09-03T18:56:50;23.20;99.90
21197;DHT22;10756;51.014;3.786;2022-09-03T19:08:36;23.40;99.90
21197;DHT22;10756;51.014;3.786;2022-09-03T19:14:05;23.40;99.90
21197;DHT22;10756;51.014;3.786;2022-09-03T19:25:11;22.90;99.90
21197;DHT22;10756;51.014;3.786;2022-09-03T19:36:26;22.70;99.90
21197;DHT22;10756;51.014;3.786;2022-09-03T19:51:14;22.20;99.90
21197;DHT22;10756;51.014;3.786;2022-09-03T19:53:53;22.50;99.90
21197;DHT22;10756;51.014;3.786;2022-09-03T19:56:31;22.30;99.90
21197;DHT22;10756;51.014;3.786;2022-09-03T19:59:12;22.10;99.90
21197;DHT22;10756;51.014;3.786;2022-09-03T20:01:51;22.00;99.90
21197;DHT22;10756;51.014;3.786;2022-09-03T20:04:43;21.80;99.90
21197;DHT22;10756;51.014;3.786;2022-09-03T20:07:20;21.90;99.90
21197;DHT22;10756;51.014;3.786;2022-09-03T20:10:02;21.80;99.90
21197;DHT22;10756;51.014;3.786;2022-09-03T20:12:44;21.90;99.90
21197;DHT22;10756;51.014;3.786;2022-09-03T20:15:12;21.70;99.90
21197;DHT22;10756;51.014;3.786;2022-09-03T20:20:33;21.30;99.90
21197;DHT22;10756;51.014;3.786;2022-09-03T20:23:05;21.40;99.90
21197;DHT22;10756;51.014;3.786;2022-09-03T20:54:39;20.70;99.90
21197;DHT22;10756;51.014;3.786;2022-09-03T21:00:16;20.80;99.90
21197;DHT22;10756;51.014;3.786;2022-09-03T21:02:59;20.70;99.90
21197;DHT22;10756;51.014;3.786;2022-09-03T21:11:04;20.50;99.90
21197;DHT22;10756;51.014;3.786;2022-09-03T21:13:46;20.50;99.90
21197;DHT22;10756;51.014;3.786;2022-09-03T21:19:47;21.60;99.90
21197;DHT22;10756;51.014;3.786;2022-09-03T21:27:00;20.70;99.90
21197;DHT22;10756;51.014;3.786;2022-09-03T21:29:39;20.50;99.90
21197;DHT22;10756;51.014;3.786;2022-09-03T21:32:17;20.70;99.90
21197;DHT22;10756;51.014;3.786;2022-09-03T21:34:54;20.50;99.90
21197;DHT22;10756;51.014;3.786;2022-09-03T21:37:23;20.60;99.90
21197;DHT22;10756;51.014;3.786;2022-09-03T21:39:52;20.40;99.90
21197;DHT22;10756;51.014;3.786;2022-09-03T21:42:30;20.40;99.90
21197;DHT22;10756;51.014;3.786;2022-09-03T21:45:07;20.40;99.90
21197;DHT22;10756;51.014;3.786;2022-09-03T21:47:41;20.60;99.90
21197;DHT22;10756;51.014;3.786;2022-09-03T21:50:20;21.00;99.90
21197;DHT22;10756;51.014;3.786;2022-09-03T22:01:09;21.10;99.90
21197;DHT22;10756;51.014;3.786;2022-09-03T22:03:38;21.20;99.90
21197;DHT22;10756;51.014;3.786;2022-09-03T22:06:16;21.00;99.90
21197;DHT22;10756;51.014;3.786;2022-09-03T22:11:28;21.00;99.90
21197;DHT22;10756;51.014;3.786;2022-09-03T22:19:14;20.70;99.90
21197;DHT22;10756;51.014;3.786;2022-09-03T22:21:43;20.60;99.90
21197;DHT22;10756;51.014;3.786;2022-09-03T22:24:24;20.50;99.90
21197;DHT22;10756;51.014;3.786;2022-09-03T22:29:27;20.20;99.90
21197;DHT22;10756;51.014;3.786;2022-09-03T22:32:06;20.10;99.90
21197;DHT22;10756;51.014;3.786;2022-09-03T22:40:15;19.70;99.90
21197;DHT22;10756;51.014;3.786;2022-09-03T22:50:59;19.40;99.90
21197;DHT22;10756;51.014;3.786;2022-09-03T22:56:18;19.30;99.90
21197;DHT22;10756;51.014;3.786;2022-09-03T23:01:28;19.30;99.90
21197;DHT22;10756;51.014;3.786;2022-09-03T23:06:48;19.20;99.90
21197;DHT22;10756;51.014;3.786;2022-09-03T23:09:21;19.10;99.90
21197;DHT22;10756;51.014;3.786;2022-09-03T23:12:00;19.20;99.90
21197;DHT22;10756;51.014;3.786;2022-09-03T23:14:32;19.30;99.90
21197;DHT22;10756;51.014;3.786;2022-09-03T23:17:05;19.50;99.90
21197;DHT22;10756;51.014;3.786;2022-09-03T23:19:45;19.60;99.90
21197;DHT22;10756;51.014;3.786;2022-09-03T23:24:55;19.60;99.90
21197;DHT22;10756;51.014;3.786;2022-09-03T23:27:26;19.40;99.90
21197;DHT22;10756;51.014;3.786;2022-09-03T23:29:59;19.10;99.90
21197;DHT22;10756;51.014;3.786;2022-09-03T23:32:27;19.10;99.90
21197;DHT22;10756;51.014;3.786;2022-09-03T23:34:55;19.00;99.90
21197;DHT22;10756;51.014;3.786;2022-09-03T23:56:06;19.00;99.90
21197;DHT22;10756;51.014;3.786;2022-09-03T23:58:53;19.40;99.90
